createdAt,value
2019-05-30T00:00:33.949Z,101739.33
2019-05-30T00:03:05.094Z,101742.77
2019-05-30T00:05:34.332Z,101743.92
2019-05-30T00:08:04.406Z,101743.61
2019-05-30T00:10:33.909Z,101743.95
2019-05-30T00:13:03.277Z,101742.48
2019-05-30T00:15:32.723Z,101746.33
2019-05-30T00:18:02.894Z,101749.69
2019-05-30T00:20:34.805Z,101760.80
2019-05-30T00:23:04.076Z,101765.80
2019-05-30T00:25:33.301Z,101761.31
2019-05-30T00:28:05.134Z,101766.46
2019-05-30T00:30:33.697Z,101767.20
2019-05-30T00:33:04.767Z,101765.66
2019-05-30T00:35:34.540Z,101760.16
2019-05-30T00:38:03.932Z,101760.81
2019-05-30T00:40:33.397Z,101756.66
2019-05-30T00:43:04.108Z,101755.19
2019-05-30T00:45:33.500Z,101757.64
2019-05-30T00:48:02.859Z,101754.88
2019-05-30T00:50:32.063Z,101755.28
2019-05-30T00:53:01.305Z,101756.34
2019-05-30T00:55:30.736Z,101761.81
2019-05-30T00:58:00.589Z,101759.94
2019-05-30T01:00:42.841Z,101764.51
2019-05-30T01:03:03.581Z,101768.10
2019-05-30T01:05:32.243Z,101764.34
2019-05-30T01:08:01.519Z,101765.89
2019-05-30T01:10:30.947Z,101764.09
2019-05-30T01:13:01.281Z,101762.34
2019-05-30T01:15:30.713Z,101772.70
2019-05-30T01:18:01.089Z,101767.31
2019-05-30T01:20:30.576Z,101770.66
2019-05-30T01:23:01.532Z,101766.89
2019-05-30T01:25:32.196Z,101770.33
2019-05-30T01:28:01.651Z,101775.87
2019-05-30T01:30:31.240Z,101766.23
2019-05-30T01:33:01.722Z,101763.46
2019-05-30T01:35:31.324Z,101778.55
2019-05-30T01:38:01.852Z,101776.99
2019-05-30T01:40:31.262Z,101774.20
2019-05-30T01:43:00.514Z,101774.62
2019-05-30T01:45:29.947Z,101767.02
2019-05-30T01:48:00.088Z,101762.53
2019-05-30T01:50:29.538Z,101769.78
2019-05-30T01:53:00.321Z,101770.11
2019-05-30T01:55:29.715Z,101777.36
2019-05-30T01:57:58.910Z,101773.68
2019-05-30T02:00:38.792Z,101772.70
2019-05-30T02:03:09.535Z,101775.14
2019-05-30T02:05:40.013Z,101775.77
2019-05-30T02:08:10.154Z,101778.70
2019-05-30T02:10:39.789Z,101778.61
2019-05-30T02:13:09.875Z,101772.01
2019-05-30T02:15:39.405Z,101779.34
2019-05-30T02:18:09.908Z,101777.63
2019-05-30T02:20:40.541Z,101775.92
2019-05-30T02:23:11.516Z,101779.83
2019-05-30T02:25:40.710Z,101781.45
2019-05-30T02:28:10.439Z,101774.94
2019-05-30T02:30:40.421Z,101774.04
2019-05-30T02:33:12.298Z,101783.08
2019-05-30T02:35:41.240Z,101782.36
2019-05-30T02:38:11.908Z,101782.04
2019-05-30T02:40:41.407Z,101782.61
2019-05-30T02:43:12.232Z,101787.69
2019-05-30T02:45:42.087Z,101783.05
2019-05-30T02:48:12.193Z,101789.34
2019-05-30T02:50:42.214Z,101787.71
2019-05-30T02:53:13.148Z,101786.00
2019-05-30T02:55:43.166Z,101787.30
2019-05-30T02:58:12.879Z,101789.02
2019-05-30T03:00:42.900Z,101791.62
2019-05-30T03:03:14.248Z,101789.19
2019-05-30T03:05:44.566Z,101787.56
2019-05-30T03:08:14.732Z,101789.36
2019-05-30T03:10:44.117Z,101799.06
2019-05-30T03:13:13.465Z,101799.16
2019-05-30T03:15:42.949Z,101800.14
2019-05-30T03:18:14.534Z,101800.39
2019-05-30T03:20:43.608Z,101802.59
2019-05-30T03:23:14.850Z,101797.46
2019-05-30T03:25:44.410Z,101799.42
2019-05-30T03:28:13.992Z,101794.78
2019-05-30T03:30:46.701Z,101795.84
2019-05-30T03:33:36.365Z,101803.03
2019-05-30T03:35:47.248Z,101790.64
2019-05-30T03:38:16.836Z,101789.17
2019-05-30T03:40:46.307Z,101796.33
2019-05-30T03:43:16.154Z,101797.39
2019-05-30T03:45:46.315Z,101798.86
2019-05-30T03:48:18.992Z,101792.02
2019-05-30T03:50:51.687Z,101798.30
2019-05-30T03:53:21.989Z,101804.58
2019-05-30T03:55:56.723Z,101800.02
2019-05-30T03:58:35.085Z,101807.12
2019-05-30T04:01:08.084Z,101809.98
2019-05-30T04:03:42.334Z,101812.42
2019-05-30T04:06:20.055Z,101805.16
2019-05-30T04:08:52.328Z,101806.22
2019-05-30T04:11:24.942Z,101805.08
2019-05-30T04:13:58.198Z,101807.92
2019-05-30T04:16:27.397Z,101805.48
2019-05-30T04:18:56.619Z,101803.95
2019-05-30T04:21:26.299Z,101805.09
2019-05-30T04:23:55.541Z,101806.97
2019-05-30T04:26:24.758Z,101805.83
2019-05-30T04:28:54.080Z,101815.54
2019-05-30T04:31:23.514Z,101807.45
2019-05-30T04:33:52.740Z,101812.50
2019-05-30T04:36:22.180Z,101806.20
2019-05-30T04:38:51.452Z,101817.88
2019-05-30T04:41:21.109Z,101815.98
2019-05-30T04:43:50.590Z,101814.98
2019-05-30T04:46:21.840Z,101814.47
2019-05-30T04:48:51.339Z,101806.03
2019-05-30T04:51:21.632Z,101810.12
2019-05-30T04:53:51.162Z,101809.94
2019-05-30T04:56:22.212Z,101810.09
2019-05-30T04:58:51.760Z,101810.39
2019-05-30T05:01:22.218Z,101808.00
2019-05-30T05:03:52.159Z,101805.12
2019-05-30T05:06:21.950Z,101805.42
2019-05-30T05:08:51.862Z,101803.10
2019-05-30T05:11:25.106Z,101811.33
2019-05-30T05:13:52.544Z,101803.28
2019-05-30T05:16:34.477Z,101807.09
2019-05-30T05:18:52.944Z,101815.72
2019-05-30T05:21:23.139Z,101798.92
2019-05-30T05:23:52.796Z,101807.48
2019-05-30T05:26:22.296Z,101800.73
2019-05-30T05:28:53.579Z,101805.84
2019-05-30T05:31:22.810Z,101805.38
2019-05-30T05:33:56.521Z,101790.01
2019-05-30T05:36:23.192Z,101802.22
2019-05-30T05:38:52.429Z,101804.36
2019-05-30T05:41:22.285Z,101789.98
2019-05-30T05:43:51.730Z,101783.83
2019-05-30T05:46:20.937Z,101795.24
2019-05-30T05:48:51.544Z,101798.53
2019-05-30T05:51:20.906Z,101795.75
2019-05-30T05:53:50.157Z,101790.84
2019-05-30T05:56:19.366Z,101789.44
2019-05-30T05:58:48.723Z,101795.42
2019-05-30T06:01:19.393Z,101790.59
2019-05-30T06:03:48.712Z,101801.30
2019-05-30T06:06:19.564Z,101797.38
2019-05-30T06:08:48.818Z,101789.69
2019-05-30T06:11:18.636Z,101786.11
2019-05-30T06:13:48.345Z,101789.27
2019-05-30T06:16:17.852Z,101790.84
2019-05-30T06:18:47.213Z,101793.02
2019-05-30T06:21:17.247Z,101789.46
2019-05-30T06:23:46.729Z,101785.00
2019-05-30T06:26:17.761Z,101783.88
2019-05-30T06:28:47.187Z,101787.27
2019-05-30T06:31:16.466Z,101782.80
2019-05-30T06:33:45.898Z,101771.28
2019-05-30T06:36:15.116Z,101778.70
2019-05-30T06:38:44.405Z,101773.63
2019-05-30T06:41:13.724Z,101773.39
2019-05-30T06:43:42.940Z,101771.17
2019-05-30T06:46:12.189Z,101763.06
2019-05-30T06:48:41.584Z,101761.98
2019-05-30T06:51:14.258Z,101759.41
2019-05-30T06:53:42.239Z,101759.41
2019-05-30T06:56:11.458Z,101752.59
2019-05-30T06:58:48.447Z,101741.40
2019-05-30T07:01:11.795Z,101738.39
2019-05-30T07:03:41.590Z,101744.09
2019-05-30T07:06:11.454Z,101736.95
2019-05-30T07:08:42.861Z,101734.86
2019-05-30T07:11:12.108Z,101732.98
2019-05-30T07:13:43.292Z,101730.36
2019-05-30T07:16:12.576Z,101732.89
2019-05-30T07:18:41.793Z,101736.99
2019-05-30T07:21:11.199Z,101731.20
2019-05-30T07:23:40.933Z,101727.78
2019-05-30T07:26:10.137Z,101724.98
2019-05-30T07:28:39.725Z,101716.55
2019-05-30T07:31:09.037Z,101714.63
2019-05-30T07:33:38.231Z,101718.34
2019-05-30T07:36:07.709Z,101718.63
2019-05-30T07:38:37.046Z,101706.38
2019-05-30T07:41:06.246Z,101722.27
2019-05-30T07:43:35.714Z,101719.66
2019-05-30T07:46:04.980Z,101721.28
2019-05-30T07:48:34.387Z,101601.12
2019-05-30T07:51:03.923Z,101711.42
2019-05-30T07:53:33.244Z,101702.52
2019-05-30T07:56:02.455Z,101709.89
2019-05-30T07:58:33.248Z,101698.22
2019-05-30T08:01:02.651Z,101694.39
2019-05-30T08:03:32.623Z,101691.00
2019-05-30T08:06:02.081Z,101693.63
2019-05-30T08:08:31.844Z,101697.36
2019-05-30T08:11:09.548Z,101694.11
2019-05-30T08:13:33.151Z,101693.61
2019-05-30T08:16:02.566Z,101688.72
2019-05-30T08:18:31.890Z,101687.97
2019-05-30T08:21:01.512Z,101675.95
2019-05-30T08:23:30.741Z,101684.62
2019-05-30T08:26:01.288Z,101672.88
2019-05-30T08:28:32.159Z,101665.13
2019-05-30T08:31:01.927Z,101656.00
2019-05-30T08:33:31.469Z,101665.30
2019-05-30T08:36:05.216Z,101658.77
2019-05-30T08:38:33.146Z,101670.06
2019-05-30T08:41:02.828Z,101679.84
2019-05-30T08:43:32.027Z,101664.27
2019-05-30T08:46:01.282Z,101660.89
2019-05-30T08:48:32.806Z,101657.08
2019-05-30T08:51:01.652Z,101657.88
2019-05-30T08:53:32.597Z,101653.70
2019-05-30T08:56:02.051Z,101650.72
2019-05-30T08:58:32.445Z,101648.91
2019-05-30T09:01:02.264Z,101642.84
2019-05-30T09:03:31.599Z,101646.22
2019-05-30T09:06:03.968Z,101636.81
2019-05-30T09:08:32.082Z,101640.34
2019-05-30T09:11:01.343Z,101642.63
2019-05-30T09:13:30.538Z,101646.03
2019-05-30T09:16:00.081Z,101638.50
2019-05-30T09:18:29.315Z,101632.75
2019-05-30T09:20:58.583Z,101637.33
2019-05-30T09:23:28.088Z,101634.64
2019-05-30T09:25:57.317Z,101631.93
2019-05-30T09:28:26.576Z,101630.95
2019-05-30T09:30:56.091Z,101628.20
2019-05-30T09:33:25.415Z,101628.62
2019-05-30T09:35:54.624Z,101617.05
2019-05-30T09:38:24.100Z,101605.95
2019-05-30T09:40:53.310Z,101605.30
2019-05-30T09:43:22.533Z,101614.41
2019-05-30T09:45:51.958Z,101605.00
2019-05-30T09:48:21.175Z,101607.27
2019-05-30T09:50:51.153Z,101618.50
2019-05-30T09:53:20.712Z,101615.50
2019-05-30T09:55:51.602Z,101613.16
2019-05-30T09:58:21.072Z,101609.53
2019-05-30T10:00:50.484Z,101610.92
2019-05-30T10:03:19.752Z,101602.56
2019-05-30T10:05:50.495Z,101613.41
2019-05-30T10:08:20.006Z,101589.59
2019-05-30T10:10:49.596Z,101584.52
2019-05-30T10:13:19.410Z,101583.27
2019-05-30T10:15:48.780Z,101580.02
2019-05-30T10:18:18.026Z,101576.97
2019-05-30T10:20:48.165Z,101586.89
2019-05-30T10:23:18.601Z,101578.30
2019-05-30T10:25:49.402Z,101576.64
2019-05-30T10:28:18.744Z,101578.92
2019-05-30T10:30:52.540Z,101571.70
2019-05-30T10:33:19.139Z,101570.54
2019-05-30T10:35:49.129Z,101571.95
2019-05-30T10:38:22.286Z,101558.66
2019-05-30T10:40:52.309Z,101560.08
2019-05-30T10:43:21.730Z,101563.73
2019-05-30T10:45:53.250Z,101561.20
2019-05-30T10:48:22.578Z,101567.03
2019-05-30T10:50:52.261Z,101567.05
2019-05-30T10:53:22.132Z,101560.81
2019-05-30T10:55:53.013Z,101563.89
2019-05-30T10:58:30.511Z,101567.45
2019-05-30T11:00:59.899Z,101547.43
2019-05-30T11:03:29.430Z,101550.88
2019-05-30T11:06:29.188Z,101551.18
2019-05-30T11:09:00.966Z,101560.34
2019-05-30T11:11:30.353Z,101551.06
2019-05-30T11:13:59.593Z,101542.77
2019-05-30T11:16:28.795Z,101531.66
2019-05-30T11:18:58.246Z,101529.27
2019-05-30T11:21:27.488Z,101515.98
2019-05-30T11:23:56.837Z,101519.45
2019-05-30T11:26:26.094Z,101519.71
2019-05-30T11:28:56.705Z,101522.00
2019-05-30T11:31:25.919Z,101411.91
2019-05-30T11:33:55.375Z,101528.87
2019-05-30T11:36:25.048Z,101512.66
2019-05-30T11:38:55.350Z,101497.58
2019-05-30T11:41:24.823Z,101501.59
2019-05-30T11:43:54.075Z,101508.73
2019-05-30T11:46:23.279Z,101490.99
2019-05-30T11:48:53.647Z,101501.02
2019-05-30T11:51:22.951Z,101483.24
2019-05-30T11:53:52.169Z,101477.18
2019-05-30T11:56:21.528Z,101478.48
2019-05-30T11:58:51.836Z,101483.23
2019-05-30T12:01:21.259Z,101485.25
2019-05-30T12:03:50.793Z,101472.88
2019-05-30T12:06:20.069Z,101477.77
2019-05-30T12:08:49.284Z,101453.43
2019-05-30T12:11:20.166Z,101457.94
2019-05-30T12:13:49.399Z,101470.01
2019-05-30T12:16:19.058Z,101450.41
2019-05-30T12:18:48.403Z,101442.86
2019-05-30T12:21:17.628Z,101442.80
2019-05-30T12:23:46.897Z,101432.79
2019-05-30T12:26:16.257Z,101432.73
2019-05-30T12:28:45.521Z,101435.95
2019-05-30T12:31:14.779Z,101443.25
2019-05-30T12:33:44.203Z,101431.81
2019-05-30T12:36:13.447Z,101425.86
2019-05-30T12:38:42.760Z,101439.14
2019-05-30T12:41:12.192Z,101426.98
2019-05-30T12:43:41.437Z,101414.14
2019-05-30T12:46:10.637Z,101424.45
2019-05-30T12:48:40.061Z,101417.29
2019-05-30T12:51:09.296Z,101420.30
2019-05-30T12:53:38.491Z,101417.15
2019-05-30T12:56:07.909Z,101414.16
2019-05-30T12:58:37.146Z,101419.98
2019-05-30T13:01:07.051Z,101405.61
2019-05-30T13:03:37.270Z,101390.83
2019-05-30T13:06:07.542Z,101398.06
2019-05-30T13:08:36.932Z,101383.11
2019-05-30T13:11:06.394Z,101386.19
2019-05-30T13:13:35.696Z,101375.86
2019-05-30T13:16:08.460Z,101380.80
2019-05-30T13:18:36.187Z,101366.16
2019-05-30T13:21:06.324Z,101377.89
2019-05-30T13:23:35.758Z,101370.90
2019-05-30T13:26:05.914Z,101360.88
2019-05-30T13:28:35.268Z,101370.94
2019-05-30T13:31:04.594Z,101358.80
2019-05-30T13:33:33.917Z,101353.50
2019-05-30T13:36:03.174Z,101351.64
2019-05-30T13:38:32.381Z,101345.01
2019-05-30T13:41:01.805Z,101350.16
2019-05-30T13:43:31.295Z,101333.36
2019-05-30T13:46:00.540Z,101328.84
2019-05-30T13:48:29.960Z,101330.88
2019-05-30T13:50:59.241Z,101323.00
2019-05-30T13:53:28.454Z,101318.42
2019-05-30T13:55:57.864Z,101316.13
2019-05-30T13:58:27.107Z,101302.94
2019-05-30T14:00:56.310Z,101311.66
2019-05-30T14:03:25.760Z,101315.43
2019-05-30T14:05:55.061Z,101299.35
2019-05-30T14:08:24.267Z,101294.47
2019-05-30T14:10:53.593Z,101296.89
2019-05-30T14:13:22.852Z,101281.84
2019-05-30T14:15:52.049Z,101288.03
2019-05-30T14:18:21.371Z,101266.31
2019-05-30T14:20:50.686Z,101268.39
2019-05-30T14:23:19.901Z,101277.06
2019-05-30T14:25:49.239Z,101254.49
2019-05-30T14:28:18.484Z,101253.02
2019-05-30T14:30:47.688Z,101249.06
2019-05-30T14:33:17.019Z,101194.11
2019-05-30T14:35:46.350Z,101232.62
2019-05-30T14:38:15.744Z,101217.73
2019-05-30T14:40:45.156Z,101213.11
2019-05-30T14:43:14.502Z,101213.82
2019-05-30T14:45:43.954Z,101213.05
2019-05-30T14:48:13.367Z,101196.72
2019-05-30T14:50:42.733Z,101193.01
2019-05-30T14:53:13.045Z,101183.81
2019-05-30T14:55:42.801Z,101197.55
2019-05-30T14:58:13.223Z,101177.25
2019-05-30T15:00:43.314Z,101187.22
2019-05-30T15:03:15.788Z,101172.66
2019-05-30T15:05:43.662Z,101165.17
2019-05-30T15:08:14.107Z,101162.05
2019-05-30T15:10:43.312Z,101182.61
2019-05-30T15:13:13.686Z,101147.27
2019-05-30T15:15:43.144Z,101150.73
2019-05-30T15:18:13.302Z,101134.95
2019-05-30T15:20:42.768Z,101131.03
2019-05-30T15:23:12.111Z,101129.63
2019-05-30T15:25:41.420Z,101126.96
2019-05-30T15:28:10.665Z,101118.99
2019-05-30T15:30:39.995Z,101118.87
2019-05-30T15:33:10.296Z,101118.41
2019-05-30T15:35:39.818Z,101110.63
2019-05-30T15:38:09.195Z,101105.94
2019-05-30T15:40:38.529Z,101109.59
2019-05-30T15:43:07.819Z,101097.76
2019-05-30T15:45:37.405Z,101098.09
2019-05-30T15:48:08.278Z,101091.52
2019-05-30T15:50:37.613Z,101079.69
2019-05-30T15:53:07.151Z,101067.02
2019-05-30T15:55:36.368Z,101070.48
2019-05-30T15:58:05.957Z,101068.22
2019-05-30T16:00:37.073Z,101057.20
2019-05-30T16:03:06.339Z,101062.81
2019-05-30T16:05:35.597Z,101040.95
2019-05-30T16:08:05.007Z,101059.09
2019-05-30T16:10:36.777Z,101037.98
2019-05-30T16:13:05.330Z,101030.56
2019-05-30T16:15:34.840Z,101020.08
2019-05-30T16:18:04.049Z,101019.22
2019-05-30T16:20:33.276Z,101012.22
2019-05-30T16:23:02.741Z,101008.24
2019-05-30T16:25:31.942Z,101014.02
2019-05-30T16:28:01.199Z,100992.00
2019-05-30T16:30:30.631Z,100993.70
2019-05-30T16:32:59.850Z,100998.08
2019-05-30T16:35:29.079Z,100993.67
2019-05-30T16:37:58.538Z,100985.70
2019-05-30T16:40:28.563Z,100978.61
2019-05-30T16:42:57.871Z,100979.92
2019-05-30T16:45:27.355Z,100965.44
2019-05-30T16:47:56.562Z,100964.55
2019-05-30T16:50:27.020Z,100974.55
2019-05-30T16:52:56.550Z,100964.27
2019-05-30T16:55:25.808Z,100964.08
2019-05-30T16:57:55.048Z,100940.66
2019-05-30T17:00:24.765Z,100939.77
2019-05-30T17:02:53.990Z,100945.41
2019-05-30T17:05:23.249Z,100933.27
2019-05-30T17:07:52.590Z,100918.95
2019-05-30T17:10:29.499Z,100916.97
2019-05-30T17:12:53.622Z,100906.75
2019-05-30T17:15:24.008Z,100908.03
2019-05-30T17:17:53.244Z,100908.03
2019-05-30T17:20:22.895Z,100914.31
2019-05-30T17:22:52.184Z,100904.64
2019-05-30T17:25:21.396Z,100888.02
2019-05-30T17:27:50.776Z,100892.39
2019-05-30T17:30:19.994Z,100885.23
2019-05-30T17:32:49.196Z,100893.01
2019-05-30T17:35:20.028Z,100871.90
2019-05-30T17:37:49.472Z,100871.90
2019-05-30T17:40:18.691Z,100861.31
2019-05-30T17:42:48.142Z,100860.98
2019-05-30T17:45:18.928Z,100864.56
2019-05-30T17:47:58.112Z,100868.59
2019-05-30T17:50:21.723Z,100835.39
2019-05-30T17:52:51.063Z,100847.84
2019-05-30T17:55:20.264Z,100846.61
2019-05-30T17:57:49.653Z,100830.92
2019-05-30T18:00:20.288Z,100829.17
2019-05-30T18:02:50.104Z,100823.05
2019-05-30T18:05:20.437Z,100834.06
2019-05-30T18:07:49.816Z,100822.24
2019-05-30T18:10:21.717Z,100809.99
2019-05-30T18:12:52.074Z,100799.05
2019-05-30T18:15:24.971Z,100799.95
2019-05-30T18:17:53.008Z,100784.69
2019-05-30T18:20:23.158Z,100796.53
2019-05-30T18:22:52.509Z,100787.34
2019-05-30T18:25:21.903Z,100790.92
2019-05-30T18:27:51.159Z,100781.30
2019-05-30T18:30:21.652Z,100763.77
2019-05-30T18:32:50.869Z,100769.45
2019-05-30T18:35:20.219Z,100775.12
2019-05-30T18:37:49.766Z,100761.45
2019-05-30T18:40:30.943Z,100748.69
2019-05-30T18:43:00.396Z,100762.74
2019-05-30T18:45:38.019Z,100757.05
2019-05-30T18:48:07.921Z,100747.31
2019-05-30T18:50:37.124Z,100751.67
2019-05-30T18:53:06.613Z,100748.98
2019-05-30T18:55:37.002Z,100749.83
2019-05-30T18:58:07.673Z,100747.19
2019-05-30T19:00:37.748Z,100745.80
2019-05-30T19:03:07.031Z,100748.38
2019-05-30T19:05:36.978Z,100743.55
2019-05-30T19:08:06.705Z,100744.39
2019-05-30T19:10:36.568Z,100728.13
2019-05-30T19:13:06.629Z,100722.83
2019-05-30T19:15:36.066Z,100722.33
2019-05-30T19:18:08.957Z,100715.74
2019-05-30T19:20:36.431Z,100729.30
2019-05-30T19:23:05.920Z,100729.23
2019-05-30T19:25:35.652Z,100726.06
2019-05-30T19:28:07.967Z,100722.52
2019-05-30T19:30:40.849Z,100709.23
2019-05-30T19:33:08.394Z,100720.70
2019-05-30T19:35:38.347Z,100711.86
2019-05-30T19:38:11.336Z,100714.81
2019-05-30T19:40:43.065Z,100714.81
2019-05-30T19:43:12.407Z,100709.05
2019-05-30T19:45:42.076Z,100705.47
2019-05-30T19:48:11.469Z,100704.59
2019-05-30T19:50:40.718Z,100704.59
2019-05-30T19:53:10.045Z,100718.11
2019-05-30T19:55:39.550Z,100718.11
2019-05-30T19:58:09.071Z,100684.75
2019-05-30T20:00:55.571Z,100684.80
2019-05-30T20:03:09.456Z,100678.18
2019-05-30T20:05:38.935Z,100678.18
2019-05-30T20:08:08.544Z,100681.75
2019-05-30T20:10:39.112Z,100681.75
2019-05-30T20:13:08.748Z,100674.23
2019-05-30T20:15:39.448Z,100667.17
2019-05-30T20:18:08.917Z,100665.35
2019-05-30T20:20:51.707Z,100668.97
2019-05-30T20:23:09.731Z,100665.46
2019-05-30T20:25:43.691Z,100659.69
2019-05-30T20:28:10.476Z,100662.83
2019-05-30T20:30:39.686Z,100662.83
2019-05-30T20:33:08.969Z,100658.86
2019-05-30T20:35:40.017Z,100655.31
2019-05-30T20:38:09.338Z,100653.59
2019-05-30T20:40:38.923Z,100655.34
2019-05-30T20:43:08.385Z,100514.20
2019-05-30T20:45:41.946Z,100646.16
2019-05-30T20:48:08.925Z,100652.71
2019-05-30T20:50:39.072Z,100638.22
2019-05-30T20:53:08.539Z,100649.66
2019-05-30T20:55:38.353Z,100635.65
2019-05-30T20:58:08.018Z,100635.65
2019-05-30T21:00:40.136Z,100627.76
2019-05-30T21:03:09.693Z,100625.61
2019-05-30T21:05:40.361Z,100627.70
2019-05-30T21:08:09.642Z,100627.28
2019-05-30T21:10:41.247Z,100625.51
2019-05-30T21:13:10.918Z,100625.51
2019-05-30T21:15:41.899Z,100623.66
2019-05-30T21:18:11.290Z,100623.66
2019-05-30T21:20:40.672Z,100629.77
2019-05-30T21:23:10.141Z,100628.45
2019-05-30T21:25:40.956Z,100620.52
2019-05-30T21:28:11.021Z,100618.32
2019-05-30T21:30:41.261Z,100614.30
2019-05-30T21:33:10.946Z,100622.27
2019-05-30T21:35:43.845Z,100621.35
2019-05-30T21:38:13.223Z,100621.35
2019-05-30T21:40:42.545Z,100618.19
2019-05-30T21:43:11.883Z,100619.05
2019-05-30T21:45:41.094Z,100619.05
2019-05-30T21:48:10.413Z,100608.55
2019-05-30T21:50:43.061Z,100606.30
2019-05-30T21:53:10.966Z,100606.76
2019-05-30T21:55:40.223Z,100605.50
2019-05-30T21:58:09.625Z,100598.06
2019-05-30T22:01:23.693Z,100603.80
2019-05-30T22:03:53.999Z,100602.06
2019-05-30T22:06:23.206Z,100598.12
2019-05-30T22:08:52.486Z,100456.16
2019-05-30T22:11:22.234Z,100588.16
2019-05-30T22:13:52.013Z,100583.41
2019-05-30T22:16:21.696Z,100583.41
2019-05-30T22:18:52.221Z,100587.81
2019-05-30T22:21:21.543Z,100592.20
2019-05-30T22:23:52.609Z,100590.89
2019-05-30T22:26:22.254Z,100592.20
2019-05-30T22:28:52.677Z,100592.20
2019-05-30T22:31:22.119Z,100585.56
2019-05-30T22:33:53.351Z,100592.97
2019-05-30T22:36:23.085Z,100608.31
2019-05-30T22:38:53.151Z,100600.42
2019-05-30T22:41:23.501Z,100602.20
2019-05-30T22:43:53.107Z,100601.34
2019-05-30T22:46:22.504Z,100619.20
2019-05-30T22:48:52.973Z,100619.20
2019-05-30T22:51:22.533Z,100613.63
2019-05-30T22:53:54.225Z,100616.05
2019-05-30T22:56:23.894Z,100619.80
2019-05-30T22:58:53.800Z,100626.30
2019-05-30T23:01:24.790Z,100624.93
2019-05-30T23:03:54.251Z,100630.16
2019-05-30T23:06:23.883Z,100627.06
2019-05-30T23:08:53.125Z,100627.06
2019-05-30T23:11:23.590Z,100624.02
2019-05-30T23:13:53.928Z,100632.78
2019-05-30T23:16:24.233Z,100624.93
2019-05-30T23:18:54.619Z,100630.21
2019-05-30T23:21:24.369Z,100624.99
2019-05-30T23:23:55.173Z,100618.91
2019-05-30T23:26:24.885Z,100615.89
2019-05-30T23:28:54.094Z,100624.66
2019-05-30T23:31:24.090Z,100635.19
2019-05-30T23:33:54.486Z,100629.08
2019-05-30T23:36:23.849Z,100626.98
2019-05-30T23:38:53.357Z,100613.91
2019-05-30T23:41:22.578Z,100641.55
2019-05-30T23:44:00.117Z,100642.03
2019-05-30T23:46:23.002Z,100636.91
2019-05-30T23:48:52.244Z,100641.39
2019-05-30T23:51:21.483Z,100648.44
2019-05-30T23:53:52.040Z,100641.13
2019-05-30T23:56:21.567Z,100635.96
2019-05-30T23:58:52.429Z,100651.39
